Bassett, California
Current Conditions -  °F | °C
As of 4:53 AM on Friday 19 Dec 2014 (Local Time) from KFUL Reporting Station
Clear Clear  
Wind Chill: 46°   Ceiling: Unl
Heat Index: 49°   Visibility: 10mi
Dew Point: 45°   Wind: 7mph
Humidity: 86%   Direction: 90°E
Pressure: 30.18"   Gusts: NA
Location:  34.0475°N, 117.985°W
Report Text: KFUL 191253Z 09006KT 10SM CLR 09/07 A3018 RMK AO2 SLP220 T00940072
Loading
Personal Weather Stations






























Interactive Weather Map New forecast layout! Learn more

10-Day Weather Forecast

Advertisements
Track Severe Weather on mobile